Time;durP1;ratioP1;P1;durP2;ratioP2;P2;SDS_P1;SDS_P2;PMS_P1;PMS_P2;Temp;Humidity;BMP_temperature;BMP_pressure;BME280_temperature;BME280_humidity;BME280_pressure;Samples;Min_cycle;Max_cycle;Signal;HPM_P1;HPM_P2
2022/04/21 00:00:26;;;;;;;4.82;0.65;;;20.60;99.90;;;;;;5028143;28;20056;-66
2022/04/21 00:02:54;;;;;;;1.42;0.20;;;20.40;99.90;;;;;;5028734;28;20061;-66
2022/04/21 00:05:21;;;;;;;3.22;0.30;;;20.60;99.90;;;;;;5021974;28;20120;-66
2022/04/21 00:07:49;;;;;;;2.05;0.30;;;20.80;99.90;;;;;;5026963;28;20025;-66
2022/04/21 00:10:17;;;;;;;1.55;0.30;;;21.10;99.90;;;;;;5026950;28;20053;-67
2022/04/21 00:12:45;;;;;;;1.38;0.35;;;21.20;99.90;;;;;;5028702;28;20017;-67
2022/04/21 00:15:12;;;;;;;1.38;0.20;;;21.20;99.90;;;;;;5028522;28;20040;-67
2022/04/21 00:17:40;;;;;;;2.35;0.55;;;21.40;99.90;;;;;;5026554;28;20033;-67
2022/04/21 00:20:08;;;;;;;7.35;2.92;;;21.60;99.90;;;;;;5019522;28;20029;-68
2022/04/21 00:25:22;;;;;;;3.22;0.50;;;21.60;99.90;;;;;;5026489;28;20551;-67
2022/04/21 00:27:49;;;;;;;3.72;0.47;;;22.00;99.90;;;;;;5019831;28;20037;-67
2022/04/21 00:30:18;;;;;;;1.60;0.40;;;22.10;99.90;;;;;;5021375;28;20758;-67
2022/04/21 00:32:46;;;;;;;3.90;0.55;;;22.20;99.90;;;;;;5025728;28;20503;-67
2022/04/21 00:35:16;;;;;;;3.95;0.52;;;22.10;99.90;;;;;;5019541;28;20433;-67
2022/04/21 00:37:52;;;;;;;2.97;0.65;;;22.30;99.90;;;;;;5023281;28;20083;-68
2022/04/21 00:40:21;;;;;;;2.92;0.85;;;22.60;99.90;;;;;;5029200;28;20099;-68
2022/04/21 00:42:48;;;;;;;2.22;0.55;;;23.00;99.90;;;;;;5033297;28;20096;-68
2022/04/21 00:45:16;;;;;;;7.97;0.82;;;23.20;99.90;;;;;;5030432;28;20029;-68
2022/04/21 00:47:46;;;;;;;1.52;0.45;;;23.20;99.90;;;;;;5031626;28;20037;-68
2022/04/21 00:50:22;;;;;;;3.28;0.57;;;22.90;99.90;;;;;;5034679;28;20026;-68
2022/04/21 00:52:51;;;;;;;3.47;0.70;;;22.90;99.90;;;;;;5034756;28;20021;-68
2022/04/21 00:55:20;;;;;;;7.60;0.50;;;23.00;99.90;;;;;;5034448;28;20017;-68
2022/04/21 00:57:48;;;;;;;5.95;0.63;;;23.30;99.90;;;;;;5017359;28;20104;-68
2022/04/21 01:00:17;;;;;;;3.60;0.40;;;23.30;99.90;;;;;;5021324;28;20513;-68
2022/04/21 01:08:02;;;;;;;0.98;0.40;;;23.40;99.90;;;;;;5019657;28;20034;-68
2022/04/21 01:10:35;;;;;;;4.95;0.52;;;23.20;99.90;;;;;;5031100;28;20486;-68
2022/04/21 01:13:06;;;;;;;5.22;0.60;;;23.10;99.90;;;;;;5034447;28;20022;-68
2022/04/21 01:15:34;;;;;;;3.22;0.73;;;23.10;99.90;;;;;;5033820;28;20030;-68
2022/04/21 01:18:01;;;;;;;5.60;0.52;;;22.70;99.90;;;;;;5018602;28;20041;-68
2022/04/21 01:20:29;;;;;;;3.20;0.60;;;22.40;99.90;;;;;;5036449;28;20060;-68
2022/04/21 01:22:56;;;;;;;2.95;0.60;;;22.00;99.90;;;;;;5034982;28;20026;-68
2022/04/21 01:25:24;;;;;;;4.15;0.93;;;21.60;99.90;;;;;;5035998;28;20029;-68
2022/04/21 01:27:57;;;;;;;7.78;1.35;;;21.40;99.90;;;;;;5034122;28;20060;-68
2022/04/21 01:30:24;;;;;;;3.47;0.60;;;21.70;99.90;;;;;;5036343;28;20363;-68
2022/04/21 01:32:52;;;;;;;4.72;1.13;;;21.90;99.90;;;;;;5023594;28;20026;-68
2022/04/21 01:35:19;;;;;;;4.30;0.80;;;22.10;99.90;;;;;;5030715;28;20022;-68
2022/04/21 01:43:09;;;;;;;7.15;1.00;;;21.30;99.90;;;;;;5033888;28;20021;-68
2022/04/21 01:45:38;;;;;;;6.85;1.27;;;21.90;99.90;;;;;;5016067;28;20042;-68
2022/04/21 01:48:06;;;;;;;7.32;1.05;;;22.00;99.90;;;;;;5020191;28;20032;-68
2022/04/21 01:50:34;;;;;;;6.57;1.23;;;22.20;99.90;;;;;;5036222;28;20061;-68
2022/04/21 01:53:02;;;;;;;14.88;1.73;;;22.60;99.90;;;;;;5032446;28;20029;-68
2022/04/21 01:55:30;;;;;;;11.18;2.05;;;22.40;99.90;;;;;;5031508;28;20029;-68
2022/04/21 01:57:58;;;;;;;5.07;0.80;;;22.80;99.90;;;;;;5034204;28;20030;-69
2022/04/21 02:00:26;;;;;;;6.90;1.15;;;23.10;99.90;;;;;;5030235;28;20039;-69
2022/04/21 02:02:54;;;;;;;4.93;1.30;;;23.40;99.90;;;;;;5031661;28;20062;-68
2022/04/21 02:05:22;;;;;;;5.38;1.08;;;23.00;99.90;;;;;;5023938;28;20056;-68
2022/04/21 02:07:49;;;;;;;7.95;1.15;;;22.60;99.90;;;;;;5030698;28;20021;-69
2022/04/21 02:10:19;;;;;;;6.03;1.10;;;23.00;99.90;;;;;;5021359;28;20025;-68
2022/04/21 02:12:46;;;;;;;9.57;1.10;;;22.30;99.90;;;;;;5022155;28;20097;-68
2022/04/21 02:15:17;;;;;;;6.25;1.45;;;21.70;99.90;;;;;;5029145;28;20030;-68
2022/04/21 02:17:46;;;;;;;7.03;1.40;;;21.40;99.90;;;;;;5014535;28;20084;-68
2022/04/21 02:20:15;;;;;;;7.15;1.02;;;20.70;99.90;;;;;;5024898;28;20052;-68
2022/04/21 02:22:44;;;;;;;9.38;1.75;;;20.20;99.90;;;;;;5015118;28;20041;-68
2022/04/21 02:25:13;;;;;;;7.93;1.63;;;20.00;99.90;;;;;;5017980;28;20026;-68
2022/04/21 02:27:43;;;;;;;8.77;1.08;;;19.70;99.90;;;;;;5016039;28;20355;-68
2022/04/21 02:30:14;;;;;;;9.13;1.10;;;19.20;99.90;;;;;;5052579;28;20021;-68
2022/04/21 02:32:44;;;;;;;13.15;1.35;;;19.00;99.90;;;;;;5052111;28;20033;-68
2022/04/21 02:35:14;;;;;;;7.03;1.20;;;18.70;99.90;;;;;;5020100;28;20025;-68
2022/04/21 02:37:45;;;;;;;6.63;1.30;;;18.50;99.90;;;;;;5030627;28;20068;-68
2022/04/21 02:40:14;;;;;;;6.20;1.35;;;18.60;99.90;;;;;;5024081;28;20055;-68
2022/04/21 02:42:42;;;;;;;7.00;1.27;;;18.60;99.90;;;;;;5033530;28;20048;-69
2022/04/21 02:45:13;;;;;;;10.35;2.20;;;18.70;99.90;;;;;;5026394;28;20041;-68
2022/04/21 02:47:45;;;;;;;5.13;1.42;;;18.40;99.90;;;;;;4997721;28;20192;-68
2022/04/21 02:50:15;;;;;;;7.30;2.15;;;18.40;99.90;;;;;;5015019;28;20033;-68
2022/04/21 02:52:43;;;;;;;4.57;1.08;;;18.40;99.90;;;;;;5022157;28;20022;-68
2022/04/21 02:57:53;;;;;;;5.35;1.65;;;18.20;99.90;;;;;;5026078;28;20025;-68
2022/04/21 03:00:21;;;;;;;12.20;2.63;;;18.00;99.90;;;;;;5025098;28;20890;-68
2022/04/21 03:02:49;;;;;;;10.13;2.42;;;17.90;99.90;;;;;;5024068;28;20048;-68
2022/04/21 03:05:17;;;;;;;12.88;2.45;;;18.10;99.90;;;;;;5023616;28;20076;-68
2022/04/21 03:07:45;;;;;;;8.48;2.38;;;17.90;99.90;;;;;;5017364;28;20896;-68
2022/04/21 03:10:12;;;;;;;11.23;2.67;;;18.00;99.90;;;;;;5035701;28;20036;-68
2022/04/21 03:12:40;;;;;;;10.98;2.45;;;18.20;99.90;;;;;;5029958;28;20049;-68
2022/04/21 03:15:11;;;;;;;6.65;1.75;;;18.10;99.90;;;;;;5032450;28;20033;-68
2022/04/21 03:17:39;;;;;;;13.88;2.45;;;18.10;99.90;;;;;;5032812;28;20148;-68
2022/04/21 03:20:08;;;;;;;9.60;2.13;;;18.10;99.90;;;;;;5032578;28;20521;-68
2022/04/21 03:25:17;;;;;;;12.95;2.45;;;18.10;99.90;;;;;;5034161;28;20037;-68
2022/04/21 03:27:48;;;;;;;8.13;2.17;;;18.10;99.90;;;;;;5027994;28;20033;-68
2022/04/21 03:30:16;;;;;;;11.63;2.22;;;18.00;99.90;;;;;;5020877;28;20029;-68
2022/04/21 03:32:43;;;;;;;12.32;2.45;;;17.90;99.90;;;;;;5024559;28;20036;-68
2022/04/21 03:35:12;;;;;;;13.07;2.00;;;17.70;99.90;;;;;;5029908;28;20108;-69
2022/04/21 03:37:39;;;;;;;15.45;2.30;;;17.70;99.90;;;;;;5029801;28;20029;-68
2022/04/21 03:40:08;;;;;;;5.85;1.55;;;17.70;99.90;;;;;;5023353;28;21529;-68
2022/04/21 03:42:36;;;;;;;11.70;2.42;;;17.70;99.90;;;;;;5026930;28;20018;-69
2022/04/21 03:45:05;;;;;;;14.15;2.63;;;17.70;99.90;;;;;;5025806;28;20417;-68
2022/04/21 03:47:32;;;;;;;12.82;2.50;;;17.50;99.90;;;;;;5026778;28;20028;-69
2022/04/21 03:50:01;;;;;;;13.05;1.98;;;17.60;99.90;;;;;;5024352;28;20033;-69
2022/04/21 03:52:29;;;;;;;11.38;1.83;;;17.70;99.90;;;;;;5026867;28;20042;-69
2022/04/21 03:54:56;;;;;;;12.25;2.47;;;17.70;99.90;;;;;;5026544;28;20500;-69
2022/04/21 03:57:25;;;;;;;11.27;1.83;;;17.60;99.90;;;;;;5028451;28;20029;-69
2022/04/21 03:59:53;;;;;;;12.45;2.60;;;17.70;99.90;;;;;;5022565;28;20030;-69
2022/04/21 04:02:20;;;;;;;12.85;2.33;;;17.80;99.90;;;;;;5023150;28;20469;-68
2022/04/21 04:04:47;;;;;;;15.40;2.50;;;17.80;99.90;;;;;;5019726;28;20479;-69
2022/04/21 04:12:40;;;;;;;10.93;3.13;;;18.00;99.90;;;;;;5018979;28;20029;-69
2022/04/21 04:15:12;;;;;;;11.20;2.33;;;18.10;99.90;;;;;;5029627;28;20139;-68
2022/04/21 04:17:39;;;;;;;8.52;1.98;;;18.10;99.90;;;;;;5027057;28;20132;-69
2022/04/21 04:20:08;;;;;;;11.85;2.03;;;18.20;99.90;;;;;;5028408;28;20032;-69
2022/04/21 04:22:42;;;;;;;10.15;1.90;;;18.20;99.90;;;;;;5037001;28;20029;-69
2022/04/21 04:25:09;;;;;;;;;;;18.30;99.90;;;;;;5029800;28;20102;-68
2022/04/21 04:27:37;;;;;;;9.98;1.55;;;18.30;99.90;;;;;;5023769;28;19909;-69
2022/04/21 04:30:10;;;;;;;7.38;1.52;;;18.40;99.90;;;;;;5027456;28;20032;-69
2022/04/21 04:32:38;;;;;;;10.25;1.67;;;18.40;99.90;;;;;;5026237;28;20104;-70
2022/04/21 04:35:06;;;;;;;12.63;2.22;;;18.40;99.90;;;;;;5018522;28;20117;-70
2022/04/21 04:37:35;;;;;;;12.15;1.55;;;18.40;99.90;;;;;;5013094;28;20378;-69
2022/04/21 04:40:04;;;;;;;13.48;2.13;;;18.50;99.90;;;;;;5027846;28;20110;-70
2022/04/21 04:42:35;;;;;;;12.43;3.00;;;18.50;99.90;;;;;;5028338;28;20442;-70
2022/04/21 04:47:47;;;;;;;6.40;1.42;;;18.70;99.90;;;;;;5029290;28;20034;-69
2022/04/21 04:50:17;;;;;;;7.05;1.05;;;18.70;99.90;;;;;;5030895;28;20065;-69
2022/04/21 04:52:45;;;;;;;16.92;2.00;;;18.70;99.90;;;;;;5026564;28;20425;-69
2022/04/21 04:55:13;;;;;;;5.65;1.15;;;18.70;99.90;;;;;;5027442;28;20057;-69
2022/04/21 04:57:41;;;;;;;9.77;2.00;;;18.80;99.90;;;;;;5023703;28;20048;-69
2022/04/21 05:00:10;;;;;;;11.50;3.22;;;18.70;99.90;;;;;;5029788;28;20036;-69
2022/04/21 05:02:37;;;;;;;11.35;2.10;;;18.70;99.90;;;;;;5028961;28;20046;-69
2022/04/21 05:05:06;;;;;;;4.88;1.15;;;18.70;99.90;;;;;;5026676;28;20116;-69
2022/04/21 05:07:35;;;;;;;9.73;1.80;;;18.70;99.90;;;;;;5030582;28;20028;-69
2022/04/21 05:10:03;;;;;;;5.78;1.77;;;18.80;99.90;;;;;;5031072;28;20029;-69
2022/04/21 05:12:30;;;;;;;12.20;2.60;;;18.80;99.90;;;;;;5025893;28;20048;-69
2022/04/21 05:15:00;;;;;;;8.98;1.85;;;18.90;99.90;;;;;;5023886;28;20108;-69
2022/04/21 05:17:38;;;;;;;4.45;1.15;;;18.90;99.90;;;;;;5027731;28;20048;-69
2022/04/21 05:20:10;;;;;;;5.15;0.77;;;18.90;99.90;;;;;;5028981;28;20094;-70
2022/04/21 05:22:47;;;;;;;8.50;0.70;;;18.90;99.90;;;;;;5023549;28;20055;-69
2022/04/21 05:25:15;;;;;;;6.00;1.13;;;18.90;99.90;;;;;;5029827;28;20092;-69
2022/04/21 05:27:43;;;;;;;10.48;3.80;;;18.90;99.90;;;;;;5029330;28;20017;-69
2022/04/21 05:32:53;;;;;;;9.95;4.53;;;18.90;99.90;;;;;;5028200;28;20022;-69
2022/04/21 05:35:21;;;;;;;5.05;0.93;;;18.80;99.90;;;;;;5030500;28;20044;-69
2022/04/21 05:37:49;;;;;;;8.15;2.08;;;18.90;99.90;;;;;;5027600;28;20029;-69
2022/04/21 05:40:18;;;;;;;10.98;1.27;;;18.80;99.90;;;;;;5031037;28;20052;-69
2022/04/21 05:42:49;;;;;;;8.63;2.15;;;18.80;99.90;;;;;;5030139;28;20092;-69
2022/04/21 05:45:18;;;;;;;10.40;2.33;;;18.90;99.90;;;;;;5033338;28;20025;-69
2022/04/21 05:47:48;;;;;;;10.10;2.00;;;18.90;99.90;;;;;;5033886;28;20029;-69
2022/04/21 05:50:16;;;;;;;8.23;1.70;;;18.90;99.90;;;;;;5031862;28;20573;-68
2022/04/21 05:52:52;;;;;;;9.65;1.42;;;18.90;99.90;;;;;;5029721;28;20033;-68
2022/04/21 05:55:20;;;;;;;6.35;1.35;;;18.90;99.90;;;;;;5030463;28;20391;-68
2022/04/21 05:57:48;;;;;;;10.70;1.52;;;18.80;99.90;;;;;;5027139;28;20029;-68
2022/04/21 06:00:16;;;;;;;10.02;2.08;;;18.80;99.90;;;;;;5031230;28;20435;-68
2022/04/21 06:02:44;;;;;;;5.15;1.52;;;18.80;99.90;;;;;;5030748;28;20482;-68
2022/04/21 06:05:11;;;;;;;9.98;1.60;;;18.70;99.90;;;;;;5032252;28;20069;-68
2022/04/21 06:07:39;;;;;;;8.88;1.33;;;18.70;99.90;;;;;;5028430;28;20018;-69
2022/04/21 06:10:07;;;;;;;8.50;2.22;;;18.70;99.90;;;;;;5028791;28;20021;-69
2022/04/21 06:12:36;;;;;;;9.65;1.67;;;18.70;99.90;;;;;;5033781;28;20028;-69
2022/04/21 06:15:04;;;;;;;7.50;1.65;;;18.70;99.90;;;;;;5027339;28;20405;-69
2022/04/21 06:17:32;;;;;;;5.82;1.10;;;18.80;99.90;;;;;;5032752;28;20037;-69
2022/04/21 06:20:00;;;;;;;7.38;1.38;;;18.80;99.90;;;;;;5031021;28;20075;-69
2022/04/21 06:22:27;;;;;;;7.72;2.13;;;18.80;99.90;;;;;;5027618;28;20035;-69
2022/04/21 06:24:55;;;;;;;8.85;1.63;;;18.80;99.90;;;;;;5032120;28;20030;-69
2022/04/21 06:27:23;;;;;;;11.02;1.25;;;18.80;99.90;;;;;;5032493;28;20021;-69
2022/04/21 06:29:50;;;;;;;8.32;1.80;;;18.70;99.90;;;;;;5025428;28;20032;-69
2022/04/21 06:32:18;;;;;;;10.50;1.95;;;18.70;99.90;;;;;;5032470;28;20103;-69
2022/04/21 06:34:45;;;;;;;5.72;1.42;;;18.70;99.90;;;;;;5030094;28;20030;-69
2022/04/21 06:37:13;;;;;;;4.88;1.10;;;18.70;99.90;;;;;;5026817;28;20029;-69
2022/04/21 06:39:41;;;;;;;6.90;1.00;;;18.80;99.90;;;;;;5029647;28;20107;-69
2022/04/21 06:42:08;;;;;;;13.80;2.38;;;18.80;99.90;;;;;;5025197;28;20025;-69
2022/04/21 06:49:59;;;;;;;5.22;1.13;;;18.80;99.90;;;;;;5027355;28;20037;-70
2022/04/21 06:52:27;;;;;;;6.03;0.80;;;18.90;99.90;;;;;;5020300;28;20036;-69
2022/04/21 06:54:55;;;;;;;8.23;1.50;;;18.90;99.90;;;;;;5025688;28;20021;-69
2022/04/21 06:57:23;;;;;;;8.80;1.48;;;18.90;99.90;;;;;;5028115;28;20026;-69
2022/04/21 06:59:51;;;;;;;5.85;1.35;;;18.90;99.90;;;;;;5026180;28;20482;-70
2022/04/21 07:02:25;;;;;;;3.88;1.55;;;19.00;99.90;;;;;;5018340;28;20132;-70
2022/04/21 07:04:52;;;;;;;11.02;2.00;;;19.00;99.90;;;;;;4995023;28;20559;-70
2022/04/21 07:07:20;;;;;;;5.43;0.82;;;18.90;99.90;;;;;;5008033;28;20018;-70
2022/04/21 07:09:47;;;;;;;3.90;0.98;;;18.90;99.90;;;;;;5004466;28;20072;-69
2022/04/21 07:12:15;;;;;;;7.85;1.42;;;18.90;99.90;;;;;;5010844;28;20032;-69
2022/04/21 07:14:42;;;;;;;6.70;1.00;;;18.90;99.90;;;;;;5011610;28;20022;-69
2022/04/21 07:17:10;;;;;;;4.72;0.90;;;19.00;99.90;;;;;;5000999;28;20026;-70
2022/04/21 07:19:37;;;;;;;8.52;1.05;;;19.00;99.90;;;;;;5010858;28;20433;-70
2022/04/21 07:22:05;;;;;;;7.43;1.33;;;19.00;99.90;;;;;;5009031;28;20080;-69
2022/04/21 07:24:32;;;;;;;10.00;1.30;;;19.00;99.90;;;;;;5020218;28;20018;-69
2022/04/21 07:26:59;;;;;;;7.28;1.30;;;19.10;99.90;;;;;;4996059;28;20030;-69
2022/04/21 07:29:26;;;;;;;7.30;1.00;;;19.10;99.90;;;;;;5009320;28;20545;-69
2022/04/21 07:31:53;;;;;;;4.75;0.95;;;19.10;99.90;;;;;;5009242;28;20084;-69
2022/04/21 07:34:21;;;;;;;6.85;1.00;;;19.00;99.90;;;;;;5008917;28;20516;-69
2022/04/21 07:36:48;;;;;;;9.30;1.13;;;19.10;99.90;;;;;;5010882;28;20036;-69
2022/04/21 07:39:15;;;;;;;4.60;1.17;;;19.00;99.90;;;;;;5007242;28;20065;-70
2022/04/21 07:41:42;;;;;;;5.40;0.60;;;19.00;99.90;;;;;;5015968;28;20109;-69
2022/04/21 07:44:10;;;;;;;7.28;0.98;;;19.00;99.90;;;;;;5012307;28;20030;-69
2022/04/21 07:46:37;;;;;;;4.30;0.65;;;19.00;99.90;;;;;;5011518;28;20034;-69
2022/04/21 07:51:49;;;;;;;6.75;1.52;;;19.00;99.90;;;;;;5005002;28;20084;-69
2022/04/21 07:54:17;;;;;;;4.20;1.40;;;19.00;99.90;;;;;;5004975;28;20336;-68
2022/04/21 07:56:44;;;;;;;6.43;1.10;;;19.00;99.90;;;;;;5008781;28;20022;-69
2022/04/21 07:59:11;;;;;;;8.55;1.80;;;19.00;99.90;;;;;;5007212;28;20057;-68
2022/04/21 08:01:38;;;;;;;5.30;1.10;;;19.00;99.90;;;;;;5007120;28;20053;-68
2022/04/21 08:04:05;;;;;;;4.35;1.10;;;19.00;99.90;;;;;;5011655;28;20049;-68
2022/04/21 08:06:33;;;;;;;5.22;1.00;;;19.00;99.90;;;;;;5008321;28;20548;-69
2022/04/21 08:09:00;;;;;;;6.95;0.90;;;19.00;99.90;;;;;;4990925;28;20038;-68
2022/04/21 08:11:27;;;;;;;9.32;1.23;;;19.00;99.90;;;;;;5012496;28;20026;-68
2022/04/21 08:13:56;;;;;;;8.65;3.22;;;19.00;99.90;;;;;;5014020;28;20538;-68
2022/04/21 08:16:23;;;;;;;5.55;0.93;;;19.00;99.90;;;;;;5002588;28;20498;-68
2022/04/21 08:18:52;;;;;;;7.43;1.27;;;19.00;99.90;;;;;;5010528;28;20040;-68
2022/04/21 08:21:19;;;;;;;7.78;0.90;;;19.00;99.90;;;;;;5005183;28;20025;-68
2022/04/21 08:23:47;;;;;;;5.82;1.25;;;19.00;99.90;;;;;;5008056;28;20103;-68
2022/04/21 08:34:30;;;;;;;6.35;1.38;;;19.00;99.90;;;;;;5008097;28;20092;-68
2022/04/21 08:36:57;;;;;;;4.43;0.85;;;19.00;99.90;;;;;;5009700;28;20475;-69
2022/04/21 08:39:24;;;;;;;7.60;0.95;;;19.00;99.90;;;;;;4993191;28;20025;-68
2022/04/21 08:42:04;;;;;;;6.35;1.00;;;19.10;99.90;;;;;;5006964;28;20022;-68
2022/04/21 08:44:34;;;;;;;9.20;1.33;;;19.00;99.90;;;;;;5010439;28;20022;-69
2022/04/21 08:47:05;;;;;;;5.40;0.60;;;19.00;99.90;;;;;;5007524;28;20049;-68
2022/04/21 08:49:34;;;;;;;6.38;1.23;;;19.00;99.90;;;;;;5011463;28;20419;-68
2022/04/21 08:52:02;;;;;;;5.95;1.27;;;19.00;99.90;;;;;;4991068;28;20097;-69
2022/04/21 08:54:31;;;;;;;7.47;1.05;;;18.90;99.90;;;;;;5006564;28;20034;-68
2022/04/21 08:56:59;;;;;;;8.98;1.35;;;18.90;99.90;;;;;;5003061;28;20064;-69
2022/04/21 08:59:26;;;;;;;6.63;1.50;;;18.70;99.90;;;;;;5008859;28;20363;-68
2022/04/21 09:01:58;;;;;;;4.60;1.20;;;18.70;99.90;;;;;;5008843;28;20064;-69
2022/04/21 09:04:26;;;;;;;11.10;1.90;;;18.70;99.90;;;;;;5009652;28;20486;-69
2022/04/21 09:06:53;;;;;;;8.48;1.92;;;18.70;99.90;;;;;;5029009;28;20076;-68
2022/04/21 09:09:24;;;;;;;7.40;1.70;;;18.70;99.90;;;;;;5024053;28;20470;-68
2022/04/21 09:11:54;;;;;;;8.13;2.03;;;18.80;99.90;;;;;;5024772;28;20021;-69
2022/04/21 09:14:22;;;;;;;12.48;2.53;;;18.80;99.90;;;;;;5032446;28;20052;-69
2022/04/21 09:16:49;;;;;;;12.15;1.75;;;18.80;99.90;;;;;;5015929;28;20128;-68
2022/04/21 09:19:17;;;;;;;6.60;1.25;;;18.80;99.90;;;;;;5028183;28;20464;-68
2022/04/21 09:21:44;;;;;;;8.95;2.30;;;18.80;99.90;;;;;;5029504;28;20029;-68
2022/04/21 09:24:22;;;;;;;9.10;1.92;;;18.80;99.90;;;;;;5030172;28;20047;-68
2022/04/21 09:26:50;;;;;;;9.40;1.77;;;18.80;99.90;;;;;;5027536;28;20040;-68
2022/04/21 09:29:30;;;;;;;10.63;2.28;;;18.70;99.90;;;;;;5013678;28;20038;-68
2022/04/21 09:32:05;;;;;;;6.57;1.15;;;18.70;99.90;;;;;;5031125;28;20044;-68
2022/04/21 09:34:33;;;;;;;8.88;2.05;;;18.70;99.90;;;;;;5028645;28;20022;-68
2022/04/21 09:37:00;;;;;;;12.60;1.88;;;18.70;99.90;;;;;;5026524;28;20037;-68
2022/04/21 09:39:28;;;;;;;7.43;1.27;;;18.70;99.90;;;;;;5013105;28;20021;-68
2022/04/21 09:41:56;;;;;;;8.45;1.05;;;18.60;99.90;;;;;;5028009;28;20408;-69
2022/04/21 09:47:32;;;;;;;5.03;1.10;;;18.60;99.90;;;;;;5026830;28;20048;-69
2022/04/21 09:50:12;;;;;;;4.97;1.13;;;18.50;99.90;;;;;;5028116;28;20138;-69
2022/04/21 09:52:46;;;;;;;13.90;2.22;;;18.50;99.90;;;;;;5027110;28;20048;-69
2022/04/21 09:55:31;;;;;;;8.55;1.75;;;18.50;99.90;;;;;;5030813;28;20025;-69
2022/04/21 09:58:05;;;;;;;;;;;18.40;99.90;;;;;;5024277;28;20394;-69
2022/04/21 10:00:35;;;;;;;12.60;2.55;;;18.30;99.90;;;;;;5025812;28;19992;-69
2022/04/21 10:03:04;;;;;;;8.40;1.45;;;18.30;99.90;;;;;;5026272;28;20320;-69
2022/04/21 10:05:33;;;;;;;12.45;2.28;;;18.20;99.90;;;;;;5028619;28;20069;-69
2022/04/21 10:08:08;;;;;;;8.73;1.85;;;18.20;99.90;;;;;;5030899;28;20116;-68
2022/04/21 10:10:37;;;;;;;8.32;2.00;;;18.10;99.90;;;;;;5026343;28;20044;-69
2022/04/21 10:13:06;;;;;;;9.48;1.90;;;18.10;99.90;;;;;;5031842;28;20025;-69
2022/04/21 10:15:35;;;;;;;12.05;1.95;;;18.10;99.90;;;;;;5032256;28;20029;-68
2022/04/21 10:18:03;;;;;;;10.57;1.65;;;18.00;99.90;;;;;;5026627;28;20508;-69
2022/04/21 10:20:31;;;;;;;15.63;1.85;;;18.00;99.90;;;;;;5017777;28;20029;-69
2022/04/21 10:23:01;;;;;;;7.30;1.33;;;18.00;99.90;;;;;;5033198;28;20029;-69
2022/04/21 10:25:39;;;;;;;8.20;1.77;;;18.00;99.90;;;;;;5026432;28;20033;-69
2022/04/21 10:28:39;;;;;;;6.70;1.38;;;18.00;99.90;;;;;;5031391;28;20029;-69
2022/04/21 10:31:37;;;;;;;11.20;2.33;;;18.10;99.90;;;;;;5027706;28;20029;-69
2022/04/21 10:34:06;;;;;;;8.90;1.50;;;18.10;99.90;;;;;;5028800;28;20036;-69
2022/04/21 10:36:47;;;;;;;9.40;1.23;;;18.20;99.90;;;;;;5027793;28;20041;-69
2022/04/21 10:39:27;;;;;;;4.70;1.48;;;18.20;99.90;;;;;;5027268;28;20421;-69
2022/04/21 10:42:16;;;;;;;7.10;1.27;;;18.20;99.90;;;;;;5027234;28;20033;-69
2022/04/21 10:44:53;;;;;;;9.45;1.20;;;18.20;99.90;;;;;;5019471;28;20026;-69
2022/04/21 10:47:41;;;;;;;8.90;1.70;;;18.20;99.90;;;;;;5031783;28;20049;-69
2022/04/21 10:50:16;;;;;;;8.73;1.00;;;18.20;99.90;;;;;;5020876;28;20442;-69
2022/04/21 10:57:58;;;;;;;11.68;1.90;;;18.30;99.90;;;;;;5032669;28;20100;-69
2022/04/21 11:00:29;;;;;;;12.15;2.55;;;18.30;99.90;;;;;;5029071;28;20072;-69
2022/04/21 11:03:04;;;;;;;8.68;1.83;;;18.30;99.90;;;;;;5028320;28;20127;-69
2022/04/21 11:05:33;;;;;;;9.32;1.83;;;18.30;99.90;;;;;;5025770;28;20029;-69
2022/04/21 11:08:02;;;;;;;11.63;1.98;;;18.20;99.90;;;;;;5032730;28;20445;-69
2022/04/21 11:10:43;;;;;;;11.32;1.88;;;18.30;99.90;;;;;;5030565;28;20025;-69
2022/04/21 11:13:10;;;;;;;10.23;1.90;;;18.20;99.90;;;;;;5030273;28;20076;-69
2022/04/21 11:15:45;;;;;;;6.93;0.88;;;18.20;99.90;;;;;;5031902;28;20112;-69
2022/04/21 11:18:15;;;;;;;5.55;1.85;;;18.20;99.90;;;;;;5034023;28;20036;-69
2022/04/21 11:20:46;;;;;;;13.32;2.50;;;18.20;99.90;;;;;;5029822;28;20514;-69
2022/04/21 11:23:31;;;;;;;8.43;1.67;;;18.20;99.90;;;;;;5029347;28;20504;-69
2022/04/21 11:26:07;;;;;;;9.32;1.65;;;18.20;99.90;;;;;;5028350;28;20044;-69
2022/04/21 11:28:34;;;;;;;8.90;1.60;;;18.10;99.90;;;;;;5033516;28;20022;-69
2022/04/21 11:31:03;;;;;;;6.15;1.33;;;18.00;99.90;;;;;;5030651;28;20477;-69
2022/04/21 11:33:31;;;;;;;11.38;1.88;;;17.80;99.90;;;;;;5024817;28;20021;-69
2022/04/21 11:36:11;;;;;;;12.25;1.83;;;17.60;99.90;;;;;;5027871;28;20265;-69
2022/04/21 11:38:44;;;;;;;11.23;1.73;;;17.40;99.90;;;;;;5024544;28;20505;-69
2022/04/21 11:41:13;;;;;;;5.03;1.35;;;17.20;99.90;;;;;;5026204;28;20025;-69
2022/04/21 11:43:52;;;;;;;9.52;1.98;;;17.10;99.90;;;;;;5021870;28;20030;-69
2022/04/21 11:46:22;;;;;;;7.63;1.00;;;17.10;99.90;;;;;;5024154;28;20050;-69
2022/04/21 11:49:01;;;;;;;8.75;0.98;;;17.00;99.90;;;;;;5014527;28;20029;-69
2022/04/21 11:51:28;;;;;;;6.60;1.17;;;17.00;99.90;;;;;;5028122;28;20025;-69
2022/04/21 11:53:56;;;;;;;8.13;1.30;;;16.90;99.90;;;;;;5030769;28;20025;-68
2022/04/21 11:56:24;;;;;;;7.38;1.48;;;16.90;99.90;;;;;;5029779;28;20030;-69
2022/04/21 11:58:51;;;;;;;7.10;0.93;;;16.80;99.90;;;;;;5013038;28;20126;-69
2022/04/21 12:06:57;;;;;;;9.60;1.38;;;16.70;99.90;;;;;;5030175;28;20048;-69
2022/04/21 12:09:50;;;;;;;6.68;1.40;;;16.60;99.90;;;;;;5023842;28;20053;-68
2022/04/21 12:12:21;;;;;;;7.15;1.55;;;16.40;99.90;;;;;;5031303;28;20021;-69
2022/04/21 12:14:48;;;;;;;11.35;1.48;;;16.50;99.90;;;;;;5020337;28;20081;-68
2022/04/21 12:17:17;;;;;;;5.45;0.85;;;16.40;99.90;;;;;;5029257;28;20032;-68
2022/04/21 12:19:46;;;;;;;9.15;1.25;;;16.30;99.90;;;;;;5026746;28;20413;-68
2022/04/21 12:22:18;;;;;;;8.50;1.65;;;16.30;99.90;;;;;;5022168;28;20533;-68
2022/04/21 12:24:47;;;;;;;10.45;2.15;;;16.40;99.90;;;;;;5022466;28;20458;-68
2022/04/21 12:27:40;;;;;;;12.45;1.67;;;16.40;99.90;;;;;;5012705;28;20552;-68
2022/04/21 12:30:11;;;;;;;12.75;2.13;;;16.40;99.90;;;;;;5023999;28;20045;-68
2022/04/21 12:32:40;;;;;;;11.18;1.77;;;16.40;99.90;;;;;;5023330;28;20053;-68
2022/04/21 12:35:10;;;;;;;11.40;1.98;;;16.50;99.90;;;;;;5026278;28;21312;-68
2022/04/21 12:37:38;;;;;;;8.75;1.40;;;16.40;99.90;;;;;;5028792;28;20021;-68
2022/04/21 12:40:09;;;;;;;19.95;4.10;;;16.40;99.90;;;;;;5022919;28;20041;-68
2022/04/21 12:42:37;;;;;;;17.35;2.63;;;16.40;99.90;;;;;;5023094;28;20933;-68
2022/04/21 12:45:05;;;;;;;11.10;1.65;;;16.40;99.90;;;;;;5024331;28;20034;-68
2022/04/21 12:47:43;;;;;;;11.43;1.70;;;16.50;99.90;;;;;;5026999;28;20025;-68
2022/04/21 12:50:18;;;;;;;8.18;0.88;;;16.40;99.90;;;;;;5024600;28;20014;-68
2022/04/21 12:53:03;;;;;;;9.45;1.35;;;16.40;99.90;;;;;;5022807;28;20112;-69
2022/04/21 12:55:31;;;;;;;9.93;2.03;;;16.30;99.90;;;;;;5025243;28;20113;-68
2022/04/21 12:58:27;;;;;;;13.98;1.73;;;16.20;99.90;;;;;;5021771;28;20636;-68
2022/04/21 13:00:55;;;;;;;11.00;1.60;;;16.20;99.90;;;;;;5017860;28;20441;-69
2022/04/21 13:03:23;;;;;;;11.27;1.40;;;16.20;99.90;;;;;;5020133;28;20075;-68
2022/04/21 13:05:52;;;;;;;15.63;2.55;;;16.30;99.90;;;;;;5019323;28;20127;-69
2022/04/21 13:08:21;;;;;;;18.05;3.58;;;16.30;99.90;;;;;;5024022;28;20021;-68
2022/04/21 13:10:49;;;;;;;17.45;2.88;;;16.20;99.90;;;;;;5022655;28;20032;-68
2022/04/21 13:13:17;;;;;;;14.93;2.60;;;16.20;99.90;;;;;;5022366;28;20038;-68
2022/04/21 13:15:45;;;;;;;17.35;2.45;;;16.20;99.90;;;;;;5022798;28;20022;-68
2022/04/21 13:18:14;;;;;;;13.40;2.78;;;16.20;99.90;;;;;;5030478;28;20106;-69
2022/04/21 13:23:27;;;;;;;14.50;1.70;;;16.20;99.90;;;;;;5025777;28;20041;-68
2022/04/21 13:25:55;;;;;;;23.17;2.58;;;16.30;99.90;;;;;;5022318;28;20069;-70
2022/04/21 13:28:23;;;;;;;14.90;2.22;;;16.30;99.90;;;;;;5022001;28;20119;-70
2022/04/21 13:33:21;;;;;;;15.52;2.60;;;16.30;99.90;;;;;;5019949;28;20737;-70
2022/04/21 13:33:38;;;;;;;8.88;1.27;;;16.20;99.90;;;;;;5022085;28;20048;-70
2022/04/21 13:36:06;;;;;;;14.63;1.45;;;16.20;99.90;;;;;;5021241;28;20067;-70
2022/04/21 13:38:34;;;;;;;10.80;1.50;;;16.20;99.90;;;;;;5021112;28;20033;-70
2022/04/21 13:41:01;;;;;;;12.80;2.03;;;16.20;99.90;;;;;;5024486;28;20855;-70
2022/04/21 13:43:28;;;;;;;9.13;1.00;;;16.20;99.90;;;;;;5023870;28;20136;-70
2022/04/21 13:45:57;;;;;;;7.68;1.60;;;16.20;99.90;;;;;;5019489;28;20034;-70
2022/04/21 13:48:25;;;;;;;8.00;1.02;;;16.20;99.90;;;;;;5020710;28;20071;-70
2022/04/21 13:50:53;;;;;;;12.13;1.95;;;16.20;99.90;;;;;;5021832;28;20033;-70
2022/04/21 13:53:20;;;;;;;7.47;1.52;;;16.20;99.90;;;;;;5019259;28;20018;-70
2022/04/21 13:55:49;;;;;;;7.15;1.35;;;16.30;99.90;;;;;;5020013;28;20033;-70
2022/04/21 13:58:16;;;;;;;7.60;1.17;;;16.30;99.90;;;;;;5023960;28;20055;-70